sensor_id;sensor_type;location;lat;lon;timestamp;pressure;altitude;pressure_sealevel;temperature;humidity
58243;BME280;50118;53.232;8.252;2023-05-02T00:00:37;101522.78;;;10.22;100.00
58243;BME280;50118;53.232;8.252;2023-05-02T00:03:03;101527.25;;;10.21;100.00
58243;BME280;50118;53.232;8.252;2023-05-02T00:05:30;101540.34;;;10.13;100.00
58243;BME280;50118;53.232;8.252;2023-05-02T00:07:55;101543.22;;;10.21;100.00
58243;BME280;50118;53.232;8.252;2023-05-02T00:10:21;101543.84;;;10.02;100.00
58243;BME280;50118;53.232;8.252;2023-05-02T00:12:46;101542.66;;;9.95;100.00
58243;BME280;50118;53.232;8.252;2023-05-02T00:15:12;101546.16;;;9.96;100.00
58243;BME280;50118;53.232;8.252;2023-05-02T00:17:40;101542.19;;;10.01;100.00
58243;BME280;50118;53.232;8.252;2023-05-02T00:20:10;101545.78;;;10.00;100.00
58243;BME280;50118;53.232;8.252;2023-05-02T00:22:36;101541.69;;;9.96;100.00
58243;BME280;50118;53.232;8.252;2023-05-02T00:25:02;101541.69;;;9.85;100.00
58243;BME280;50118;53.232;8.252;2023-05-02T00:27:28;101545.06;;;9.87;100.00
58243;BME280;50118;53.232;8.252;2023-05-02T00:29:54;101548.69;;;9.75;100.00
58243;BME280;50118;53.232;8.252;2023-05-02T00:32:19;101548.59;;;9.76;100.00
58243;BME280;50118;53.232;8.252;2023-05-02T00:34:45;101548.81;;;9.73;100.00
58243;BME280;50118;53.232;8.252;2023-05-02T00:37:10;101558.63;;;9.72;100.00
58243;BME280;50118;53.232;8.252;2023-05-02T00:39:37;101550.16;;;9.67;100.00
58243;BME280;50118;53.232;8.252;2023-05-02T00:42:02;101557.41;;;9.65;100.00
58243;BME280;50118;53.232;8.252;2023-05-02T00:44:28;101554.97;;;9.73;100.00
58243;BME280;50118;53.232;8.252;2023-05-02T00:46:54;101562.59;;;9.56;100.00
58243;BME280;50118;53.232;8.252;2023-05-02T00:49:20;101558.94;;;9.57;100.00
58243;BME280;50118;53.232;8.252;2023-05-02T00:51:46;101562.94;;;9.51;100.00
58243;BME280;50118;53.232;8.252;2023-05-02T00:54:12;101560.03;;;9.54;100.00
58243;BME280;50118;53.232;8.252;2023-05-02T00:56:38;101575.25;;;9.41;100.00
58243;BME280;50118;53.232;8.252;2023-05-02T00:59:04;101580.34;;;9.44;100.00
58243;BME280;50118;53.232;8.252;2023-05-02T01:01:54;101570.53;;;9.44;100.00
58243;BME280;50118;53.232;8.252;2023-05-02T01:04:42;101574.97;;;9.32;100.00
58243;BME280;50118;53.232;8.252;2023-05-02T01:07:40;101570.63;;;9.31;100.00
58243;BME280;50118;53.232;8.252;2023-05-02T01:12:58;101574.47;;;9.27;100.00
58243;BME280;50118;53.232;8.252;2023-05-02T01:15:25;101580.03;;;9.24;100.00
58243;BME280;50118;53.232;8.252;2023-05-02T01:17:51;101577.63;;;8.97;100.00
58243;BME280;50118;53.232;8.252;2023-05-02T01:20:20;101584.06;;;8.82;100.00
58243;BME280;50118;53.232;8.252;2023-05-02T01:22:48;101585.19;;;8.90;100.00
58243;BME280;50118;53.232;8.252;2023-05-02T01:25:28;101594.31;;;8.75;100.00
58243;BME280;50118;53.232;8.252;2023-05-02T01:30:49;101605.72;;;8.64;100.00
58243;BME280;50118;53.232;8.252;2023-05-02T01:33:16;101606.09;;;8.47;100.00
58243;BME280;50118;53.232;8.252;2023-05-02T01:35:43;101608.75;;;8.47;100.00
58243;BME280;50118;53.232;8.252;2023-05-02T01:38:14;101607.31;;;8.41;100.00
58243;BME280;50118;53.232;8.252;2023-05-02T01:40:44;101618.63;;;8.32;100.00
58243;BME280;50118;53.232;8.252;2023-05-02T01:43:11;101623.94;;;8.32;100.00
58243;BME280;50118;53.232;8.252;2023-05-02T01:45:40;101637.09;;;8.33;100.00
58243;BME280;50118;53.232;8.252;2023-05-02T01:48:08;101648.38;;;8.11;100.00
58243;BME280;50118;53.232;8.252;2023-05-02T01:50:36;101650.63;;;7.92;100.00
58243;BME280;50118;53.232;8.252;2023-05-02T01:53:03;101653.69;;;7.85;100.00
58243;BME280;50118;53.232;8.252;2023-05-02T01:55:30;101650.69;;;7.77;100.00
58243;BME280;50118;53.232;8.252;2023-05-02T01:57:58;101654.53;;;7.73;100.00
58243;BME280;50118;53.232;8.252;2023-05-02T02:00:24;101653.97;;;7.68;100.00
58243;BME280;50118;53.232;8.252;2023-05-02T02:02:51;101668.94;;;7.69;100.00
58243;BME280;50118;53.232;8.252;2023-05-02T02:05:19;101669.78;;;7.70;100.00
58243;BME280;50118;53.232;8.252;2023-05-02T02:07:46;101669.13;;;7.66;100.00
58243;BME280;50118;53.232;8.252;2023-05-02T02:10:11;101671.25;;;7.61;100.00
58243;BME280;50118;53.232;8.252;2023-05-02T02:12:42;101676.16;;;7.67;100.00
58243;BME280;50118;53.232;8.252;2023-05-02T02:15:17;101679.97;;;7.63;100.00
58243;BME280;50118;53.232;8.252;2023-05-02T02:17:59;101681.63;;;7.51;100.00
58243;BME280;50118;53.232;8.252;2023-05-02T02:20:25;101694.03;;;7.51;100.00
58243;BME280;50118;53.232;8.252;2023-05-02T02:22:53;101689.88;;;7.46;100.00
58243;BME280;50118;53.232;8.252;2023-05-02T02:25:19;101694.13;;;7.49;100.00
58243;BME280;50118;53.232;8.252;2023-05-02T02:27:46;101691.78;;;7.44;100.00
58243;BME280;50118;53.232;8.252;2023-05-02T02:30:12;101690.09;;;7.43;100.00
58243;BME280;50118;53.232;8.252;2023-05-02T02:32:38;101702.59;;;7.41;100.00
58243;BME280;50118;53.232;8.252;2023-05-02T02:35:04;101706.00;;;7.43;100.00
58243;BME280;50118;53.232;8.252;2023-05-02T02:37:49;101721.97;;;7.29;100.00
58243;BME280;50118;53.232;8.252;2023-05-02T02:40:23;101720.94;;;7.44;100.00
58243;BME280;50118;53.232;8.252;2023-05-02T02:46:06;101725.91;;;7.36;100.00
58243;BME280;50118;53.232;8.252;2023-05-02T02:51:28;101727.81;;;7.34;100.00
58243;BME280;50118;53.232;8.252;2023-05-02T02:54:22;101741.44;;;7.28;100.00
58243;BME280;50118;53.232;8.252;2023-05-02T02:56:53;101751.22;;;7.13;100.00
58243;BME280;50118;53.232;8.252;2023-05-02T02:59:26;101759.28;;;7.11;100.00
58243;BME280;50118;53.232;8.252;2023-05-02T03:02:01;101759.03;;;7.02;100.00
58243;BME280;50118;53.232;8.252;2023-05-02T03:04:30;101762.72;;;6.99;100.00
58243;BME280;50118;53.232;8.252;2023-05-02T03:06:57;101771.91;;;6.94;100.00
58243;BME280;50118;53.232;8.252;2023-05-02T03:09:22;101777.75;;;6.99;100.00
58243;BME280;50118;53.232;8.252;2023-05-02T03:11:48;101784.09;;;6.82;100.00
58243;BME280;50118;53.232;8.252;2023-05-02T03:14:13;101780.91;;;6.77;100.00
58243;BME280;50118;53.232;8.252;2023-05-02T03:16:39;101793.38;;;6.75;100.00
58243;BME280;50118;53.232;8.252;2023-05-02T03:19:06;101795.16;;;6.60;100.00
58243;BME280;50118;53.232;8.252;2023-05-02T03:21:32;101803.59;;;6.66;100.00
58243;BME280;50118;53.232;8.252;2023-05-02T03:24:03;101807.84;;;6.69;100.00
58243;BME280;50118;53.232;8.252;2023-05-02T03:26:28;101820.59;;;6.62;100.00
58243;BME280;50118;53.232;8.252;2023-05-02T03:28:55;101807.06;;;6.67;100.00
58243;BME280;50118;53.232;8.252;2023-05-02T03:31:21;101815.50;;;6.59;100.00
58243;BME280;50118;53.232;8.252;2023-05-02T03:33:47;101824.78;;;6.66;100.00
58243;BME280;50118;53.232;8.252;2023-05-02T03:36:13;101831.19;;;6.62;100.00
58243;BME280;50118;53.232;8.252;2023-05-02T03:38:39;101826.66;;;6.64;100.00
58243;BME280;50118;53.232;8.252;2023-05-02T03:41:04;101833.75;;;6.64;100.00
58243;BME280;50118;53.232;8.252;2023-05-02T03:43:30;101836.28;;;6.65;100.00
58243;BME280;50118;53.232;8.252;2023-05-02T03:45:56;101834.59;;;6.64;100.00
58243;BME280;50118;53.232;8.252;2023-05-02T03:48:21;101830.16;;;6.65;100.00
58243;BME280;50118;53.232;8.252;2023-05-02T03:50:47;101845.47;;;6.60;100.00
58243;BME280;50118;53.232;8.252;2023-05-02T03:53:13;101846.59;;;6.56;100.00
58243;BME280;50118;53.232;8.252;2023-05-02T03:55:41;101849.84;;;6.61;100.00
58243;BME280;50118;53.232;8.252;2023-05-02T03:58:06;101844.72;;;6.58;100.00
58243;BME280;50118;53.232;8.252;2023-05-02T04:00:32;101854.06;;;6.49;100.00
58243;BME280;50118;53.232;8.252;2023-05-02T04:03:00;101851.41;;;6.49;100.00
58243;BME280;50118;53.232;8.252;2023-05-02T04:05:25;101862.66;;;6.52;100.00
58243;BME280;50118;53.232;8.252;2023-05-02T04:07:51;101862.75;;;6.51;100.00
58243;BME280;50118;53.232;8.252;2023-05-02T04:10:16;101864.28;;;6.55;100.00
58243;BME280;50118;53.232;8.252;2023-05-02T04:12:42;101878.81;;;6.48;100.00
58243;BME280;50118;53.232;8.252;2023-05-02T04:15:09;101888.66;;;6.46;100.00
58243;BME280;50118;53.232;8.252;2023-05-02T04:17:35;101887.34;;;6.53;100.00
58243;BME280;50118;53.232;8.252;2023-05-02T04:20:00;101890.16;;;6.50;100.00
58243;BME280;50118;53.232;8.252;2023-05-02T04:22:26;101895.75;;;6.45;100.00
58243;BME280;50118;53.232;8.252;2023-05-02T04:24:52;101896.13;;;6.53;100.00
58243;BME280;50118;53.232;8.252;2023-05-02T04:27:18;101911.50;;;6.47;100.00
58243;BME280;50118;53.232;8.252;2023-05-02T04:29:46;101913.41;;;6.45;100.00
58243;BME280;50118;53.232;8.252;2023-05-02T04:32:11;101907.09;;;6.47;100.00
58243;BME280;50118;53.232;8.252;2023-05-02T04:34:37;101921.56;;;6.56;100.00
58243;BME280;50118;53.232;8.252;2023-05-02T04:37:03;101922.81;;;6.50;100.00
58243;BME280;50118;53.232;8.252;2023-05-02T04:39:28;101929.28;;;6.45;100.00
58243;BME280;50118;53.232;8.252;2023-05-02T04:41:53;101931.09;;;6.44;100.00
58243;BME280;50118;53.232;8.252;2023-05-02T04:44:19;101931.66;;;6.49;100.00
58243;BME280;50118;53.232;8.252;2023-05-02T04:46:44;101934.75;;;6.42;100.00
58243;BME280;50118;53.232;8.252;2023-05-02T04:49:10;101939.78;;;6.46;100.00
58243;BME280;50118;53.232;8.252;2023-05-02T04:51:36;101934.66;;;6.43;100.00
58243;BME280;50118;53.232;8.252;2023-05-02T04:54:01;101943.91;;;6.36;100.00
58243;BME280;50118;53.232;8.252;2023-05-02T04:56:27;101947.41;;;6.36;100.00
58243;BME280;50118;53.232;8.252;2023-05-02T04:58:52;101957.81;;;6.40;100.00
58243;BME280;50118;53.232;8.252;2023-05-02T05:01:18;101966.88;;;6.35;100.00
58243;BME280;50118;53.232;8.252;2023-05-02T05:03:43;101968.56;;;6.36;100.00
58243;BME280;50118;53.232;8.252;2023-05-02T05:06:09;101973.69;;;6.40;100.00
58243;BME280;50118;53.232;8.252;2023-05-02T05:08:34;101980.38;;;6.31;100.00
58243;BME280;50118;53.232;8.252;2023-05-02T05:10:59;101978.22;;;6.38;100.00
58243;BME280;50118;53.232;8.252;2023-05-02T05:13:25;101980.69;;;6.25;100.00
58243;BME280;50118;53.232;8.252;2023-05-02T05:15:52;101988.91;;;6.20;100.00
58243;BME280;50118;53.232;8.252;2023-05-02T05:18:18;101986.78;;;6.11;100.00
58243;BME280;50118;53.232;8.252;2023-05-02T05:20:43;101990.59;;;6.21;100.00
58243;BME280;50118;53.232;8.252;2023-05-02T05:23:09;101999.84;;;6.14;100.00
58243;BME280;50118;53.232;8.252;2023-05-02T05:25:34;101997.94;;;6.16;100.00
58243;BME280;50118;53.232;8.252;2023-05-02T05:28:00;102003.00;;;6.21;100.00
58243;BME280;50118;53.232;8.252;2023-05-02T05:30:25;102011.19;;;6.16;100.00
58243;BME280;50118;53.232;8.252;2023-05-02T05:32:51;102011.97;;;6.18;100.00
58243;BME280;50118;53.232;8.252;2023-05-02T05:35:17;102020.66;;;6.20;100.00
58243;BME280;50118;53.232;8.252;2023-05-02T05:37:42;102027.75;;;6.35;100.00
58243;BME280;50118;53.232;8.252;2023-05-02T05:40:09;102025.09;;;6.35;100.00
58243;BME280;50118;53.232;8.252;2023-05-02T05:42:34;102035.69;;;6.35;100.00
58243;BME280;50118;53.232;8.252;2023-05-02T05:45:00;102039.34;;;6.17;100.00
58243;BME280;50118;53.232;8.252;2023-05-02T05:47:25;102044.72;;;6.15;100.00
58243;BME280;50118;53.232;8.252;2023-05-02T05:49:52;102046.16;;;6.21;100.00
58243;BME280;50118;53.232;8.252;2023-05-02T05:52:17;102054.31;;;6.18;100.00
58243;BME280;50118;53.232;8.252;2023-05-02T05:54:43;102055.84;;;6.22;100.00
58243;BME280;50118;53.232;8.252;2023-05-02T05:57:08;102061.63;;;6.29;100.00
58243;BME280;50118;53.232;8.252;2023-05-02T05:59:34;102059.16;;;6.10;98.31
58243;BME280;50118;53.232;8.252;2023-05-02T06:02:00;102070.41;;;6.29;99.84
58243;BME280;50118;53.232;8.252;2023-05-02T06:04:26;102074.19;;;6.25;95.91
58243;BME280;50118;53.232;8.252;2023-05-02T06:06:51;102077.00;;;6.22;95.59
58243;BME280;50118;53.232;8.252;2023-05-02T06:09:18;102078.59;;;6.09;95.49
58243;BME280;50118;53.232;8.252;2023-05-02T06:11:43;102091.50;;;6.15;94.34
58243;BME280;50118;53.232;8.252;2023-05-02T06:14:08;102094.72;;;6.04;92.68
58243;BME280;50118;53.232;8.252;2023-05-02T06:16:34;102094.75;;;6.20;93.86
58243;BME280;50118;53.232;8.252;2023-05-02T06:19:00;102099.03;;;6.39;93.37
58243;BME280;50118;53.232;8.252;2023-05-02T06:21:25;102100.56;;;6.43;92.74
58243;BME280;50118;53.232;8.252;2023-05-02T06:23:51;102105.00;;;6.58;89.03
58243;BME280;50118;53.232;8.252;2023-05-02T06:26:17;102104.13;;;6.42;89.87
58243;BME280;50118;53.232;8.252;2023-05-02T06:28:42;102109.78;;;6.35;88.18
58243;BME280;50118;53.232;8.252;2023-05-02T06:31:08;102111.16;;;6.43;84.96
58243;BME280;50118;53.232;8.252;2023-05-02T06:33:34;102111.16;;;6.43;85.60
58243;BME280;50118;53.232;8.252;2023-05-02T06:36:01;102111.44;;;6.54;84.49
58243;BME280;50118;53.232;8.252;2023-05-02T06:38:26;102119.69;;;6.48;80.59
58243;BME280;50118;53.232;8.252;2023-05-02T06:40:52;102126.88;;;6.78;82.35
58243;BME280;50118;53.232;8.252;2023-05-02T06:43:17;102124.41;;;6.75;79.79
58243;BME280;50118;53.232;8.252;2023-05-02T06:45:44;102127.19;;;6.87;79.65
58243;BME280;50118;53.232;8.252;2023-05-02T06:48:09;102134.13;;;6.90;77.89
58243;BME280;50118;53.232;8.252;2023-05-02T06:50:35;102135.22;;;7.02;76.89
58243;BME280;50118;53.232;8.252;2023-05-02T06:53:01;102137.19;;;6.98;74.85
58243;BME280;50118;53.232;8.252;2023-05-02T06:55:26;102149.94;;;7.22;74.23
58243;BME280;50118;53.232;8.252;2023-05-02T06:57:53;102147.38;;;6.90;74.35
58243;BME280;50118;53.232;8.252;2023-05-02T07:00:19;102147.53;;;6.87;75.79
58243;BME280;50118;53.232;8.252;2023-05-02T07:02:46;102153.81;;;7.16;75.53
58243;BME280;50118;53.232;8.252;2023-05-02T07:05:12;102154.38;;;7.07;75.17
58243;BME280;50118;53.232;8.252;2023-05-02T07:07:40;102151.72;;;7.07;75.48
58243;BME280;50118;53.232;8.252;2023-05-02T07:10:06;102156.13;;;7.53;76.39
58243;BME280;50118;53.232;8.252;2023-05-02T07:12:32;102161.13;;;7.43;70.55
58243;BME280;50118;53.232;8.252;2023-05-02T07:14:57;102162.13;;;7.40;71.82
58243;BME280;50118;53.232;8.252;2023-05-02T07:17:23;102160.03;;;7.61;73.08
58243;BME280;50118;53.232;8.252;2023-05-02T07:19:49;102169.72;;;7.77;71.68
58243;BME280;50118;53.232;8.252;2023-05-02T07:22:15;102171.56;;;8.19;69.57
58243;BME280;50118;53.232;8.252;2023-05-02T07:24:41;102173.19;;;8.36;68.32
58243;BME280;50118;53.232;8.252;2023-05-02T07:27:11;102182.19;;;8.34;67.97
58243;BME280;50118;53.232;8.252;2023-05-02T07:29:37;102189.03;;;8.67;67.99
58243;BME280;50118;53.232;8.252;2023-05-02T07:32:04;102189.69;;;8.56;67.55
58243;BME280;50118;53.232;8.252;2023-05-02T07:34:29;102203.25;;;8.22;68.44
58243;BME280;50118;53.232;8.252;2023-05-02T07:36:56;102192.84;;;7.75;68.44
58243;BME280;50118;53.232;8.252;2023-05-02T07:39:22;102209.00;;;8.00;68.59
58243;BME280;50118;53.232;8.252;2023-05-02T07:41:52;102191.22;;;8.46;68.57
58243;BME280;50118;53.232;8.252;2023-05-02T07:44:18;102198.41;;;8.58;67.84
58243;BME280;50118;53.232;8.252;2023-05-02T07:46:43;102198.81;;;8.52;67.91
58243;BME280;50118;53.232;8.252;2023-05-02T07:49:09;102208.38;;;8.54;68.99
58243;BME280;50118;53.232;8.252;2023-05-02T07:51:34;102208.56;;;8.66;69.35
58243;BME280;50118;53.232;8.252;2023-05-02T07:54:01;102218.16;;;8.95;69.24
58243;BME280;50118;53.232;8.252;2023-05-02T07:56:27;102219.56;;;8.74;71.16
58243;BME280;50118;53.232;8.252;2023-05-02T07:58:52;102229.31;;;8.30;75.82
58243;BME280;50118;53.232;8.252;2023-05-02T08:01:18;102233.59;;;8.47;77.24
58243;BME280;50118;53.232;8.252;2023-05-02T08:03:44;102223.63;;;8.94;75.08
58243;BME280;50118;53.232;8.252;2023-05-02T08:06:10;102225.47;;;9.61;71.57
58243;BME280;50118;53.232;8.252;2023-05-02T08:08:37;102226.59;;;9.44;71.03
58243;BME280;50118;53.232;8.252;2023-05-02T08:11:02;102225.47;;;9.73;67.47
58243;BME280;50118;53.232;8.252;2023-05-02T08:13:28;102221.28;;;10.22;66.96
58243;BME280;50118;53.232;8.252;2023-05-02T08:15:53;102231.47;;;9.23;67.40
58243;BME280;50118;53.232;8.252;2023-05-02T08:18:26;102226.69;;;9.42;69.14
58243;BME280;50118;53.232;8.252;2023-05-02T08:20:53;102241.25;;;8.95;71.90
58243;BME280;50118;53.232;8.252;2023-05-02T08:23:19;102248.38;;;8.37;76.17
58243;BME280;50118;53.232;8.252;2023-05-02T08:25:45;102256.13;;;8.11;76.74
58243;BME280;50118;53.232;8.252;2023-05-02T08:28:10;102257.41;;;7.43;77.24
58243;BME280;50118;53.232;8.252;2023-05-02T08:30:36;102253.38;;;7.82;77.06
58243;BME280;50118;53.232;8.252;2023-05-02T08:33:01;102258.28;;;8.04;75.83
58243;BME280;50118;53.232;8.252;2023-05-02T08:35:29;102256.38;;;8.51;73.33
58243;BME280;50118;53.232;8.252;2023-05-02T08:37:55;102251.50;;;9.01;71.89
58243;BME280;50118;53.232;8.252;2023-05-02T08:40:21;102249.53;;;9.18;68.23
58243;BME280;50118;53.232;8.252;2023-05-02T08:42:47;102269.22;;;9.42;69.09
58243;BME280;50118;53.232;8.252;2023-05-02T08:45:12;102251.84;;;10.17;63.71
58243;BME280;50118;53.232;8.252;2023-05-02T08:47:39;102255.81;;;11.12;57.95
58243;BME280;50118;53.232;8.252;2023-05-02T08:50:05;102260.72;;;12.13;54.40
58243;BME280;50118;53.232;8.252;2023-05-02T08:52:31;102259.97;;;10.67;58.40
58243;BME280;50118;53.232;8.252;2023-05-02T08:55:00;102259.22;;;11.01;57.51
58243;BME280;50118;53.232;8.252;2023-05-02T08:57:28;102266.59;;;10.35;58.38
58243;BME280;50118;53.232;8.252;2023-05-02T08:59:54;102270.47;;;9.91;63.83
58243;BME280;50118;53.232;8.252;2023-05-02T09:04:53;102273.25;;;9.35;66.18
58243;BME280;50118;53.232;8.252;2023-05-02T09:07:20;102263.56;;;9.61;67.49
58243;BME280;50118;53.232;8.252;2023-05-02T09:09:46;102275.81;;;9.37;67.16
58243;BME280;50118;53.232;8.252;2023-05-02T09:12:11;102271.91;;;9.82;65.17
58243;BME280;50118;53.232;8.252;2023-05-02T09:14:37;102279.66;;;9.04;67.70
58243;BME280;50118;53.232;8.252;2023-05-02T09:17:02;102286.53;;;8.93;70.33
58243;BME280;50118;53.232;8.252;2023-05-02T09:19:28;102282.41;;;9.02;74.13
58243;BME280;50118;53.232;8.252;2023-05-02T09:21:59;102292.41;;;8.70;75.31
58243;BME280;50118;53.232;8.252;2023-05-02T09:24:28;102288.44;;;8.63;74.80
58243;BME280;50118;53.232;8.252;2023-05-02T09:27:01;102281.94;;;8.95;75.47
58243;BME280;50118;53.232;8.252;2023-05-02T09:29:28;102285.50;;;10.18;71.09
58243;BME280;50118;53.232;8.252;2023-05-02T09:32:00;102283.91;;;10.79;64.38
58243;BME280;50118;53.232;8.252;2023-05-02T09:34:25;102283.22;;;11.14;60.31
58243;BME280;50118;53.232;8.252;2023-05-02T09:36:51;102294.47;;;11.79;59.47
58243;BME280;50118;53.232;8.252;2023-05-02T09:39:23;102292.22;;;10.88;59.08
58243;BME280;50118;53.232;8.252;2023-05-02T09:41:49;102295.72;;;12.22;56.97
58243;BME280;50118;53.232;8.252;2023-05-02T09:44:19;102300.94;;;11.64;54.85
58243;BME280;50118;53.232;8.252;2023-05-02T09:46:50;102298.94;;;10.29;60.72
58243;BME280;50118;53.232;8.252;2023-05-02T09:49:16;102300.38;;;10.48;60.40
58243;BME280;50118;53.232;8.252;2023-05-02T09:51:45;102303.50;;;10.14;63.95
58243;BME280;50118;53.232;8.252;2023-05-02T09:54:12;102311.19;;;9.79;68.35
58243;BME280;50118;53.232;8.252;2023-05-02T09:56:54;102316.44;;;9.93;68.00
58243;BME280;50118;53.232;8.252;2023-05-02T09:59:21;102328.41;;;9.46;70.87
58243;BME280;50118;53.232;8.252;2023-05-02T10:01:55;102336.66;;;9.00;72.22
58243;BME280;50118;53.232;8.252;2023-05-02T10:04:21;102333.22;;;9.26;72.76
58243;BME280;50118;53.232;8.252;2023-05-02T10:06:50;102336.28;;;9.47;69.75
58243;BME280;50118;53.232;8.252;2023-05-02T10:09:15;102338.88;;;9.62;68.52
58243;BME280;50118;53.232;8.252;2023-05-02T10:11:43;102344.53;;;9.84;66.13
58243;BME280;50118;53.232;8.252;2023-05-02T10:14:11;102341.00;;;9.57;69.26
58243;BME280;50118;53.232;8.252;2023-05-02T10:16:47;102337.44;;;9.43;70.57
58243;BME280;50118;53.232;8.252;2023-05-02T10:19:19;102332.38;;;9.80;73.63
58243;BME280;50118;53.232;8.252;2023-05-02T10:21:48;102341.53;;;9.89;65.33
58243;BME280;50118;53.232;8.252;2023-05-02T10:24:14;102337.47;;;9.70;67.43
58243;BME280;50118;53.232;8.252;2023-05-02T10:26:41;102350.28;;;9.37;67.58
58243;BME280;50118;53.232;8.252;2023-05-02T10:29:07;102345.72;;;9.24;68.08
58243;BME280;50118;53.232;8.252;2023-05-02T10:31:33;102347.56;;;9.51;65.98
58243;BME280;50118;53.232;8.252;2023-05-02T10:33:59;102352.19;;;9.62;66.08
58243;BME280;50118;53.232;8.252;2023-05-02T10:36:27;102363.00;;;9.73;69.50
58243;BME280;50118;53.232;8.252;2023-05-02T10:38:53;102362.44;;;9.12;75.24
58243;BME280;50118;53.232;8.252;2023-05-02T10:41:23;102370.22;;;9.29;76.56
58243;BME280;50118;53.232;8.252;2023-05-02T10:43:51;102362.03;;;9.32;76.34
58243;BME280;50118;53.232;8.252;2023-05-02T10:46:34;102361.44;;;9.56;74.44
58243;BME280;50118;53.232;8.252;2023-05-02T10:49:10;102370.22;;;9.01;70.74
58243;BME280;50118;53.232;8.252;2023-05-02T10:51:40;102376.59;;;9.27;71.91
58243;BME280;50118;53.232;8.252;2023-05-02T10:54:32;102379.53;;;9.37;73.05
58243;BME280;50118;53.232;8.252;2023-05-02T10:57:04;102380.88;;;9.98;69.96
58243;BME280;50118;53.232;8.252;2023-05-02T10:59:38;102373.78;;;9.57;70.82
58243;BME280;50118;53.232;8.252;2023-05-02T11:07:27;102390.38;;;10.02;69.85
58243;BME280;50118;53.232;8.252;2023-05-02T11:12:53;102403.47;;;8.79;81.48
58243;BME280;50118;53.232;8.252;2023-05-02T11:18:03;102395.09;;;8.71;88.37
58243;BME280;50118;53.232;8.252;2023-05-02T11:20:32;102404.31;;;8.79;88.74
58243;BME280;50118;53.232;8.252;2023-05-02T11:23:18;102406.53;;;9.16;87.63
58243;BME280;50118;53.232;8.252;2023-05-02T11:28:39;102404.97;;;9.82;82.38
58243;BME280;50118;53.232;8.252;2023-05-02T11:34:00;102403.75;;;9.88;79.39
58243;BME280;50118;53.232;8.252;2023-05-02T11:36:32;102403.47;;;9.78;77.58
58243;BME280;50118;53.232;8.252;2023-05-02T11:38:58;102392.56;;;9.96;80.06
58243;BME280;50118;53.232;8.252;2023-05-02T11:41:42;102396.38;;;10.19;77.03
58243;BME280;50118;53.232;8.252;2023-05-02T11:44:08;102398.34;;;10.02;75.40
58243;BME280;50118;53.232;8.252;2023-05-02T11:46:38;102404.41;;;10.04;76.58
58243;BME280;50118;53.232;8.252;2023-05-02T11:49:04;102402.47;;;9.66;79.63
58243;BME280;50118;53.232;8.252;2023-05-02T11:51:30;102414.28;;;9.89;78.71
58243;BME280;50118;53.232;8.252;2023-05-02T11:53:55;102421.69;;;9.57;75.52
58243;BME280;50118;53.232;8.252;2023-05-02T11:56:24;102413.47;;;9.75;76.86
58243;BME280;50118;53.232;8.252;2023-05-02T11:58:57;102422.81;;;10.22;76.07
58243;BME280;50118;53.232;8.252;2023-05-02T12:01:23;102412.94;;;9.82;73.08
58243;BME280;50118;53.232;8.252;2023-05-02T12:03:49;102425.22;;;9.85;72.87
58243;BME280;50118;53.232;8.252;2023-05-02T12:06:17;102432.91;;;9.33;72.97
58243;BME280;50118;53.232;8.252;2023-05-02T12:08:43;102437.81;;;8.96;76.15
58243;BME280;50118;53.232;8.252;2023-05-02T12:11:12;102430.25;;;9.05;74.51
58243;BME280;50118;53.232;8.252;2023-05-02T12:13:46;102426.25;;;8.97;75.91
58243;BME280;50118;53.232;8.252;2023-05-02T12:16:12;102428.81;;;9.28;73.25
58243;BME280;50118;53.232;8.252;2023-05-02T12:18:38;102431.72;;;9.81;73.24
58243;BME280;50118;53.232;8.252;2023-05-02T12:21:04;102435.94;;;10.25;69.22
58243;BME280;50118;53.232;8.252;2023-05-02T12:23:30;102433.06;;;10.68;66.14
58243;BME280;50118;53.232;8.252;2023-05-02T12:25:55;102431.28;;;10.94;65.51
58243;BME280;50118;53.232;8.252;2023-05-02T12:28:21;102432.16;;;10.95;63.96
58243;BME280;50118;53.232;8.252;2023-05-02T12:30:49;102430.63;;;10.91;65.22
58243;BME280;50118;53.232;8.252;2023-05-02T12:33:17;102427.84;;;10.79;63.00
58243;BME280;50118;53.232;8.252;2023-05-02T12:35:43;102434.28;;;11.02;61.37
58243;BME280;50118;53.232;8.252;2023-05-02T12:38:17;102442.56;;;10.59;63.39
58243;BME280;50118;53.232;8.252;2023-05-02T12:40:52;102452.56;;;10.01;72.18
58243;BME280;50118;53.232;8.252;2023-05-02T12:43:19;102457.75;;;9.76;68.20
58243;BME280;50118;53.232;8.252;2023-05-02T12:45:46;102466.03;;;9.71;69.09
58243;BME280;50118;53.232;8.252;2023-05-02T12:50:47;102479.75;;;9.92;67.99
58243;BME280;50118;53.232;8.252;2023-05-02T12:53:13;102474.81;;;10.27;66.74
58243;BME280;50118;53.232;8.252;2023-05-02T12:55:38;102484.47;;;10.16;67.93
58243;BME280;50118;53.232;8.252;2023-05-02T12:58:06;102471.69;;;10.21;67.24
58243;BME280;50118;53.232;8.252;2023-05-02T13:00:37;102475.75;;;9.99;66.00
58243;BME280;50118;53.232;8.252;2023-05-02T13:03:03;102472.44;;;10.23;64.77
58243;BME280;50118;53.232;8.252;2023-05-02T13:05:29;102468.25;;;10.33;66.61
58243;BME280;50118;53.232;8.252;2023-05-02T13:07:55;102476.47;;;10.16;65.89
58243;BME280;50118;53.232;8.252;2023-05-02T13:10:22;102476.34;;;10.32;66.42
58243;BME280;50118;53.232;8.252;2023-05-02T13:12:49;102485.56;;;10.26;68.85
58243;BME280;50118;53.232;8.252;2023-05-02T13:15:15;102483.53;;;10.17;67.38
58243;BME280;50118;53.232;8.252;2023-05-02T13:17:40;102481.81;;;10.16;68.62
58243;BME280;50118;53.232;8.252;2023-05-02T13:20:07;102495.06;;;10.03;69.38
58243;BME280;50118;53.232;8.252;2023-05-02T13:22:34;102492.50;;;9.87;70.67
58243;BME280;50118;53.232;8.252;2023-05-02T13:25:00;102500.06;;;10.22;70.72
58243;BME280;50118;53.232;8.252;2023-05-02T13:27:26;102498.19;;;10.37;72.10
58243;BME280;50118;53.232;8.252;2023-05-02T13:29:52;102493.63;;;10.12;68.56